createdAt,value
2024-04-23T00:00:41.871Z,113.60
2024-04-23T00:01:41.901Z,114.08
2024-04-23T00:02:41.888Z,115.76
2024-04-23T00:03:41.977Z,113.59
2024-04-23T00:04:42.047Z,112.02
2024-04-23T00:05:42.092Z,113.15
2024-04-23T00:06:42.175Z,112.71
2024-04-23T00:07:42.229Z,115.53
2024-04-23T00:08:42.230Z,114.05
2024-04-23T00:09:42.304Z,113.70
2024-04-23T00:10:42.421Z,112.96
2024-04-23T00:11:42.425Z,112.51
2024-04-23T00:12:42.459Z,111.81
2024-04-23T00:13:42.540Z,112.26
2024-04-23T00:14:42.555Z,112.33
2024-04-23T00:15:42.636Z,112.83
2024-04-23T00:16:42.710Z,114.12
2024-04-23T00:17:42.799Z,113.94
2024-04-23T00:18:42.894Z,113.97
2024-04-23T00:19:42.846Z,111.10
2024-04-23T00:20:42.886Z,111.33
2024-04-23T00:21:42.935Z,107.97
2024-04-23T00:22:43.017Z,112.43
2024-04-23T00:23:43.045Z,110.34
2024-04-23T00:24:43.109Z,112.19
2024-04-23T00:25:43.179Z,109.84
2024-04-23T00:26:43.234Z,110.52
2024-04-23T00:27:43.302Z,111.08
2024-04-23T00:28:43.361Z,107.89
2024-04-23T00:29:43.431Z,111.16
2024-04-23T00:30:43.477Z,110.02
2024-04-23T00:31:43.522Z,107.53
2024-04-23T00:32:43.640Z,109.72
2024-04-23T00:33:43.626Z,108.83
2024-04-23T00:34:43.706Z,107.06
2024-04-23T00:35:43.778Z,104.91
2024-04-23T00:36:43.806Z,108.49
2024-04-23T00:37:43.928Z,105.62
2024-04-23T00:38:43.989Z,104.74
2024-04-23T00:39:43.977Z,108.44
2024-04-23T00:40:44.080Z,107.19
2024-04-23T00:41:44.097Z,110.04
2024-04-23T00:42:44.135Z,105.96
2024-04-23T00:43:44.264Z,106.86
2024-04-23T00:44:44.245Z,107.11
2024-04-23T00:45:44.350Z,108.66
2024-04-23T00:46:44.417Z,106.24
2024-04-23T00:47:44.516Z,107.58
2024-04-23T00:48:44.512Z,105.64
2024-04-23T00:49:44.573Z,104.84
2024-04-23T00:50:44.605Z,107.03
2024-04-23T00:51:44.646Z,106.17
2024-04-23T00:52:44.774Z,105.23
2024-04-23T00:53:44.742Z,105.74
2024-04-23T00:54:44.842Z,107.29
2024-04-23T00:55:44.924Z,106.02
2024-04-23T00:56:44.918Z,105.13
2024-04-23T00:57:45.033Z,105.33
2024-04-23T00:58:45.050Z,106.17
2024-04-23T00:59:45.125Z,107.93
2024-04-23T01:00:45.183Z,105.08
2024-04-23T01:01:45.281Z,104.13
2024-04-23T01:02:45.353Z,103.73
2024-04-23T01:03:45.366Z,107.84
2024-04-23T01:04:45.442Z,106.90
2024-04-23T01:05:45.483Z,104.41
2024-04-23T01:06:45.559Z,105.10
2024-04-23T01:07:45.658Z,103.42
2024-04-23T01:08:45.644Z,104.06
2024-04-23T01:09:45.734Z,104.12
2024-04-23T01:10:45.874Z,104.32
2024-04-23T01:11:45.912Z,106.24
2024-04-23T01:12:45.871Z,105.38
2024-04-23T01:13:45.965Z,104.20
2024-04-23T01:14:45.995Z,102.96
2024-04-23T01:15:46.039Z,104.50
2024-04-23T01:16:46.159Z,101.43
2024-04-23T01:17:46.312Z,101.79
2024-04-23T01:18:46.241Z,104.21
2024-04-23T01:19:46.381Z,104.56
2024-04-23T01:20:46.338Z,103.82
2024-04-23T01:21:46.390Z,103.83
2024-04-23T01:22:46.538Z,103.10
2024-04-23T01:23:46.556Z,101.28
2024-04-23T01:24:46.632Z,105.05
2024-04-23T01:25:46.703Z,103.85
2024-04-23T01:26:46.706Z,102.82
2024-04-23T01:27:46.762Z,100.21
2024-04-23T01:28:46.964Z,102.52
2024-04-23T01:29:46.908Z,102.12
2024-04-23T01:30:46.979Z,101.81
2024-04-23T01:31:47.056Z,102.93
2024-04-23T01:32:47.119Z,100.31
2024-04-23T01:33:47.145Z,102.29
2024-04-23T01:34:47.241Z,98.99
2024-04-23T01:35:47.277Z,100.03
2024-04-23T01:36:47.326Z,102.84
2024-04-23T01:37:47.492Z,97.94
2024-04-23T01:38:47.490Z,99.08
2024-04-23T01:39:47.552Z,102.00
2024-04-23T01:40:47.640Z,102.86
2024-04-23T01:41:47.655Z,101.62
2024-04-23T01:42:47.718Z,100.84
2024-04-23T01:43:47.845Z,102.17
2024-04-23T01:44:47.826Z,102.26
2024-04-23T01:45:47.926Z,100.93
2024-04-23T01:46:48.014Z,99.76
2024-04-23T01:47:48.203Z,99.28
2024-04-23T01:48:48.062Z,102.51
2024-04-23T01:49:48.240Z,103.38
2024-04-23T01:50:48.194Z,98.36
2024-04-23T01:51:48.275Z,99.67
2024-04-23T01:52:48.402Z,101.41
2024-04-23T01:53:48.402Z,98.30
2024-04-23T01:54:48.461Z,100.48
2024-04-23T01:55:48.750Z,98.88
2024-04-23T01:56:48.575Z,99.76
2024-04-23T01:57:48.637Z,96.69
2024-04-23T01:58:48.722Z,99.58
2024-04-23T01:59:48.758Z,96.56
2024-04-23T02:00:48.851Z,99.32
2024-04-23T02:01:48.934Z,98.36
2024-04-23T02:02:49.062Z,98.81
2024-04-23T02:03:49.069Z,97.44
2024-04-23T02:04:49.131Z,98.82
2024-04-23T02:05:49.168Z,95.97
2024-04-23T02:06:49.209Z,96.70
2024-04-23T02:07:49.286Z,98.70
2024-04-23T02:08:49.359Z,97.63
2024-04-23T02:09:49.427Z,94.77
2024-04-23T02:10:49.584Z,98.12
2024-04-23T02:11:49.534Z,96.61
2024-04-23T02:12:49.604Z,97.96
2024-04-23T02:13:49.686Z,92.72
2024-04-23T02:14:49.726Z,99.27
2024-04-23T02:15:49.791Z,96.43
2024-04-23T02:16:49.902Z,96.17
2024-04-23T02:17:50.028Z,95.66
2024-04-23T02:18:49.987Z,96.09
2024-04-23T02:19:50.060Z,95.30
2024-04-23T02:20:50.112Z,94.63
2024-04-23T02:21:50.164Z,96.34
2024-04-23T02:22:50.275Z,95.05
2024-04-23T02:23:50.334Z,95.48
2024-04-23T02:24:50.398Z,93.66
2024-04-23T02:25:50.760Z,95.32
2024-04-23T02:26:50.524Z,96.28
2024-04-23T02:27:50.591Z,94.75
2024-04-23T02:28:50.705Z,95.81
2024-04-23T02:29:50.766Z,94.11
2024-04-23T02:30:50.816Z,92.59
2024-04-23T02:31:50.921Z,94.46
2024-04-23T02:32:50.986Z,94.81
2024-04-23T02:33:51.017Z,96.00
2024-04-23T02:34:51.147Z,94.29
2024-04-23T02:35:51.172Z,91.73
2024-04-23T02:36:51.228Z,92.99
2024-04-23T02:37:51.320Z,91.21
2024-04-23T02:38:51.437Z,94.24
2024-04-23T02:39:51.448Z,93.25
2024-04-23T02:40:51.520Z,94.59
2024-04-23T02:41:51.565Z,91.45
2024-04-23T02:42:51.648Z,92.33
2024-04-23T02:43:51.697Z,93.15
2024-04-23T02:44:51.743Z,93.90
2024-04-23T02:45:51.813Z,90.98
2024-04-23T02:46:51.899Z,93.08
2024-04-23T02:47:52.054Z,94.30
2024-04-23T02:48:52.031Z,91.26
2024-04-23T02:49:52.157Z,93.22
2024-04-23T02:50:52.200Z,93.01
2024-04-23T02:51:52.249Z,93.09
2024-04-23T02:52:52.326Z,91.96
2024-04-23T02:53:52.364Z,91.92
2024-04-23T02:54:52.467Z,95.18
2024-04-23T02:55:52.532Z,91.24
2024-04-23T02:56:52.716Z,93.45
2024-04-23T02:57:52.626Z,93.50
2024-04-23T02:58:52.777Z,91.86
2024-04-23T02:59:52.770Z,93.46
2024-04-23T03:00:52.946Z,92.31
2024-04-23T03:01:52.977Z,91.04
2024-04-23T03:02:53.037Z,90.27
2024-04-23T03:03:53.046Z,91.85
2024-04-23T03:04:53.159Z,89.20
2024-04-23T03:05:53.150Z,91.11
2024-04-23T03:06:53.234Z,91.70
2024-04-23T03:07:53.340Z,91.36
2024-04-23T03:08:53.362Z,90.00
2024-04-23T03:09:53.410Z,90.78
2024-04-23T03:10:53.549Z,89.60
2024-04-23T03:11:53.546Z,88.44
2024-04-23T03:12:53.608Z,90.28
2024-04-23T03:13:53.723Z,91.22
2024-04-23T03:14:53.758Z,92.11
2024-04-23T03:15:53.855Z,87.32
2024-04-23T03:16:53.979Z,89.71
2024-04-23T03:17:54.082Z,87.75
2024-04-23T03:18:54.024Z,90.59
2024-04-23T03:19:54.110Z,88.02
2024-04-23T03:20:54.169Z,89.38
2024-04-23T03:21:54.261Z,90.81
2024-04-23T03:22:54.423Z,87.41
2024-04-23T03:23:54.382Z,88.31
2024-04-23T03:24:54.433Z,90.24
2024-04-23T03:25:54.551Z,88.71
2024-04-23T03:26:54.590Z,92.08
2024-04-23T03:27:54.685Z,87.91
2024-04-23T03:28:54.743Z,90.23
2024-04-23T03:29:54.792Z,89.73
2024-04-23T03:30:54.882Z,88.68
2024-04-23T03:31:55.012Z,88.19
2024-04-23T03:32:55.174Z,87.36
2024-04-23T03:33:55.070Z,88.54
2024-04-23T03:34:55.195Z,88.17
2024-04-23T03:35:55.211Z,89.60
2024-04-23T03:36:55.254Z,87.77
2024-04-23T03:37:55.412Z,87.68
2024-04-23T03:38:55.390Z,86.14
2024-04-23T03:39:55.480Z,88.54
2024-04-23T03:40:55.547Z,87.70
2024-04-23T03:41:55.603Z,86.25
2024-04-23T03:42:55.681Z,85.97
2024-04-23T03:43:55.809Z,87.54
2024-04-23T03:44:55.815Z,89.39
2024-04-23T03:45:55.896Z,85.39
2024-04-23T03:46:56.073Z,86.82
2024-04-23T03:47:56.118Z,86.42
2024-04-23T03:48:56.113Z,84.75
2024-04-23T03:49:56.235Z,86.46
2024-04-23T03:50:56.290Z,86.62
2024-04-23T03:51:56.295Z,85.75
2024-04-23T03:52:56.469Z,85.56
2024-04-23T03:53:56.424Z,88.88
2024-04-23T03:54:56.515Z,88.47
2024-04-23T03:55:56.596Z,86.14
2024-04-23T03:56:56.678Z,84.71
2024-04-23T03:57:56.715Z,86.59
2024-04-23T03:58:56.844Z,87.85
2024-04-23T03:59:56.876Z,87.15
2024-04-23T04:00:56.976Z,84.51
2024-04-23T04:01:57.029Z,85.42
2024-04-23T04:02:57.081Z,87.26
2024-04-23T04:03:57.175Z,85.46
2024-04-23T04:04:57.258Z,84.41
2024-04-23T04:05:57.332Z,84.21
2024-04-23T04:06:57.328Z,85.20
2024-04-23T04:07:57.439Z,85.77
2024-04-23T04:08:58.608Z,82.81
2024-04-23T04:09:57.498Z,84.18
2024-04-23T04:10:57.587Z,84.54
2024-04-23T04:11:57.654Z,85.17
2024-04-23T04:13:08.166Z,84.85
2024-04-23T04:13:58.749Z,83.72
2024-04-23T04:14:57.694Z,83.67
2024-04-23T04:15:57.677Z,84.62
2024-04-23T04:16:57.768Z,80.98
2024-04-23T04:17:57.862Z,86.19
2024-04-23T04:18:57.703Z,83.82
2024-04-23T04:19:57.734Z,83.79
2024-04-23T04:20:57.745Z,84.43
2024-04-23T04:21:57.705Z,82.83
2024-04-23T04:22:57.720Z,82.40
2024-04-23T04:23:57.757Z,83.69
2024-04-23T04:24:57.845Z,79.88
2024-04-23T04:25:58.247Z,81.26
2024-04-23T04:26:57.951Z,80.46
2024-04-23T04:27:59.189Z,84.09
2024-04-23T04:28:58.142Z,82.91
2024-04-23T04:29:58.140Z,83.12
2024-04-23T04:30:58.264Z,78.91
2024-04-23T04:31:58.322Z,81.43
2024-04-23T04:32:58.344Z,81.02
2024-04-23T04:33:58.364Z,82.04
2024-04-23T04:34:58.579Z,82.56
2024-04-23T04:35:58.462Z,79.96
2024-04-23T04:36:58.547Z,79.43
2024-04-23T04:37:58.683Z,82.85
2024-04-23T04:38:58.645Z,80.24
2024-04-23T04:39:58.681Z,80.54
2024-04-23T04:40:58.873Z,81.40
2024-04-23T04:41:58.806Z,81.69
2024-04-23T04:42:58.883Z,80.28
2024-04-23T04:43:58.919Z,78.89
2024-04-23T04:44:58.938Z,80.74
2024-04-23T04:45:58.982Z,81.57
2024-04-23T04:47:02.869Z,80.97
2024-04-23T04:48:00.170Z,80.97
2024-04-23T04:48:59.028Z,81.18
2024-04-23T04:49:59.103Z,77.29
2024-04-23T04:50:59.010Z,77.93
2024-04-23T04:51:59.014Z,79.59
2024-04-23T04:53:06.522Z,50.00
2024-04-23T04:54:06.586Z,50.00
2024-04-23T04:55:06.535Z,50.00
2024-04-23T04:56:06.989Z,50.00
2024-04-23T04:57:06.486Z,50.00
2024-04-23T04:58:06.517Z,51.59
2024-04-23T04:59:06.522Z,52.31
2024-04-23T05:00:06.515Z,52.43
2024-04-23T05:01:06.533Z,50.89
2024-04-23T05:02:06.525Z,51.52
2024-04-23T05:03:06.512Z,52.75
2024-04-23T05:04:06.552Z,51.98
2024-04-23T05:05:06.600Z,53.00
2024-04-23T05:06:06.526Z,49.48
2024-04-23T05:07:06.538Z,52.98
2024-04-23T05:08:06.552Z,52.78
2024-04-23T05:09:06.533Z,54.28
2024-04-23T05:10:06.518Z,54.65
2024-04-23T05:11:06.559Z,54.63
2024-04-23T05:12:06.549Z,53.13
2024-04-23T05:13:06.533Z,52.44
2024-04-23T05:14:06.566Z,51.55
2024-04-23T05:15:06.559Z,54.15
2024-04-23T05:16:06.522Z,53.32
2024-04-23T05:17:07.073Z,51.20
2024-04-23T05:18:06.577Z,56.24
2024-04-23T05:19:06.566Z,51.73
2024-04-23T05:20:06.556Z,53.30
2024-04-23T05:21:06.540Z,53.72
2024-04-23T05:22:06.552Z,53.03
2024-04-23T05:23:06.543Z,52.47
2024-04-23T05:24:06.564Z,53.22
2024-04-23T05:25:06.658Z,53.46
2024-04-23T05:26:06.602Z,50.63
2024-04-23T05:27:06.669Z,52.23
2024-04-23T05:28:06.763Z,52.70
2024-04-23T05:29:06.841Z,54.40
2024-04-23T05:30:06.882Z,55.00
2024-04-23T05:31:06.958Z,57.16
2024-04-23T05:32:07.239Z,54.20
2024-04-23T05:33:07.147Z,52.90
2024-04-23T05:34:08.097Z,54.40
2024-04-23T05:35:07.530Z,53.70
2024-04-23T05:36:07.301Z,55.56
2024-04-23T05:37:07.527Z,52.51
2024-04-23T05:38:07.486Z,54.39
2024-04-23T05:39:07.435Z,54.21
2024-04-23T05:40:07.460Z,54.43
2024-04-23T05:41:07.482Z,54.48
2024-04-23T05:42:07.476Z,54.76
2024-04-23T05:43:07.532Z,55.74
2024-04-23T05:44:08.540Z,55.85
2024-04-23T05:45:07.707Z,58.03
2024-04-23T05:46:08.010Z,57.96
2024-04-23T05:47:08.089Z,62.84
2024-04-23T05:48:08.041Z,67.07
2024-04-23T05:49:07.880Z,68.69
2024-04-23T05:50:08.060Z,72.40
2024-04-23T05:51:07.972Z,75.95
2024-04-23T05:52:15.899Z,75.29
2024-04-23T05:53:09.148Z,75.55
2024-04-23T05:54:08.018Z,76.40
2024-04-23T05:55:08.027Z,77.33
2024-04-23T05:56:08.067Z,79.45
2024-04-23T05:57:08.004Z,88.46
2024-04-23T05:58:08.010Z,92.57
2024-04-23T05:59:08.081Z,96.45
2024-04-23T06:00:07.990Z,101.47
2024-04-23T06:01:08.009Z,105.48
2024-04-23T06:02:08.114Z,108.78
2024-04-23T06:03:08.046Z,115.03
2024-04-23T06:04:08.045Z,120.38
2024-04-23T06:05:08.094Z,124.98
2024-04-23T06:06:08.201Z,128.87
2024-04-23T06:07:08.023Z,131.13
2024-04-23T06:08:08.143Z,136.73
2024-04-23T06:09:08.027Z,138.95
2024-04-23T06:10:08.015Z,143.92
2024-04-23T06:11:08.179Z,149.28
2024-04-23T06:12:08.019Z,152.04
2024-04-23T06:13:08.021Z,157.55
2024-04-23T06:14:08.060Z,161.52
2024-04-23T06:15:08.206Z,169.60
2024-04-23T06:16:08.068Z,174.10
2024-04-23T06:17:08.107Z,179.25
2024-04-23T06:18:08.112Z,186.07
2024-04-23T06:19:08.077Z,190.52
2024-04-23T06:20:08.125Z,198.96
2024-04-23T06:21:08.132Z,198.83
2024-04-23T06:22:08.161Z,199.88
2024-04-23T06:23:08.294Z,200.00
2024-04-23T06:24:08.212Z,200.00
2024-04-23T06:25:08.219Z,199.78
2024-04-23T06:26:08.307Z,199.79
2024-04-23T06:27:09.004Z,199.52
2024-04-23T06:28:08.271Z,199.07
2024-04-23T06:29:08.339Z,200.00
2024-04-23T06:30:08.354Z,200.00
2024-04-23T06:31:08.315Z,199.97
2024-04-23T06:32:08.461Z,199.92
2024-04-23T06:33:08.642Z,200.16
2024-04-23T06:34:08.536Z,199.42
2024-04-23T06:35:09.040Z,200.00
2024-04-23T06:36:08.540Z,200.00
2024-04-23T06:37:08.541Z,200.00
2024-04-23T06:38:08.572Z,199.17
2024-04-23T06:39:09.081Z,199.23
2024-04-23T06:40:08.693Z,199.04
2024-04-23T06:41:08.669Z,198.42
2024-04-23T06:42:10.848Z,198.44
2024-04-23T06:43:08.704Z,197.79
2024-04-23T06:44:08.696Z,196.75
2024-04-23T06:45:08.664Z,195.68
2024-04-23T06:46:08.702Z,196.34
2024-04-23T06:47:08.777Z,195.50
2024-04-23T06:48:08.824Z,196.43
2024-04-23T06:49:08.783Z,196.99
2024-04-23T06:50:08.897Z,198.55
2024-04-23T06:51:08.802Z,198.80
2024-04-23T06:52:09.017Z,198.57
2024-04-23T06:53:09.036Z,198.99
2024-04-23T06:54:09.097Z,199.25
2024-04-23T06:55:08.981Z,199.38
2024-04-23T06:56:09.010Z,198.64
2024-04-23T06:57:08.977Z,199.05
2024-04-23T06:58:09.109Z,198.70
2024-04-23T06:59:09.999Z,199.54
2024-04-23T07:00:09.111Z,198.81
2024-04-23T07:01:09.117Z,200.00
2024-04-23T07:02:09.150Z,200.12
2024-04-23T07:03:09.045Z,198.41
2024-04-23T07:04:09.158Z,196.95
2024-04-23T07:05:09.322Z,197.62
2024-04-23T07:06:09.559Z,197.29
2024-04-23T07:07:09.310Z,196.32
2024-04-23T07:08:09.469Z,195.63
2024-04-23T07:09:09.469Z,196.11
2024-04-23T07:10:09.384Z,196.46
2024-04-23T07:11:09.458Z,196.65
2024-04-23T07:12:09.454Z,196.17
2024-04-23T07:13:09.573Z,195.27
2024-04-23T07:14:09.699Z,192.70
2024-04-23T07:15:09.760Z,193.43
2024-04-23T07:16:09.788Z,192.85
2024-04-23T07:17:09.881Z,194.37
2024-04-23T07:18:10.038Z,195.69
2024-04-23T07:19:09.933Z,195.75
2024-04-23T07:20:09.927Z,197.15
2024-04-23T07:21:10.023Z,196.45
2024-04-23T07:22:10.063Z,196.51
2024-04-23T07:23:10.152Z,196.36
2024-04-23T07:24:10.206Z,196.99
2024-04-23T07:25:10.261Z,197.86
2024-04-23T07:26:10.622Z,199.38
2024-04-23T07:27:10.361Z,200.00
2024-04-23T07:28:10.484Z,197.75
2024-04-23T07:29:10.656Z,196.08
2024-04-23T07:30:10.553Z,195.16
2024-04-23T07:31:10.591Z,195.77
2024-04-23T07:32:10.814Z,196.16
2024-04-23T07:33:10.860Z,196.30
2024-04-23T07:34:10.833Z,196.56
2024-04-23T07:35:10.965Z,197.82
2024-04-23T07:36:11.073Z,196.23
2024-04-23T07:37:11.012Z,198.22
2024-04-23T07:38:11.113Z,199.10
2024-04-23T07:39:11.140Z,200.00
2024-04-23T07:40:11.169Z,199.71
2024-04-23T07:41:11.229Z,200.00
2024-04-23T07:42:11.299Z,199.58
2024-04-23T07:43:11.274Z,199.00
2024-04-23T07:44:11.437Z,199.40
2024-04-23T07:45:11.310Z,200.00
2024-04-23T07:46:11.360Z,198.91
2024-04-23T07:47:11.482Z,200.00
2024-04-23T07:48:11.510Z,199.57
2024-04-23T07:49:11.441Z,200.00
2024-04-23T07:50:11.554Z,199.82
2024-04-23T07:51:11.474Z,199.05
2024-04-23T07:52:11.522Z,199.85
2024-04-23T07:53:11.630Z,198.33
2024-04-23T07:54:11.638Z,200.00
2024-04-23T07:55:11.649Z,198.11
2024-04-23T07:56:11.720Z,199.34
2024-04-23T07:57:11.739Z,199.96
2024-04-23T07:58:11.797Z,198.49
2024-04-23T07:59:11.902Z,199.98
2024-04-23T08:00:11.872Z,199.38
2024-04-23T08:01:11.947Z,200.00
2024-04-23T08:02:12.094Z,199.54
2024-04-23T08:03:12.028Z,199.52
2024-04-23T08:04:12.084Z,198.87
2024-04-23T08:05:12.142Z,200.00
2024-04-23T08:06:12.645Z,199.55
2024-04-23T08:07:12.132Z,199.57
2024-04-23T08:08:12.179Z,200.00
2024-04-23T08:09:12.214Z,200.12
2024-04-23T08:10:12.275Z,200.01
2024-04-23T08:11:12.505Z,199.17
2024-04-23T08:12:12.337Z,200.11
2024-04-23T08:13:12.348Z,200.00
2024-04-23T08:14:12.454Z,199.55
2024-04-23T08:15:14.314Z,198.68
2024-04-23T08:16:12.582Z,199.17
2024-04-23T08:17:12.685Z,200.00
2024-04-23T08:18:12.633Z,198.79
2024-04-23T08:19:12.421Z,199.46
2024-04-23T08:20:12.414Z,199.58
2024-04-23T08:21:12.607Z,199.86
2024-04-23T08:22:12.492Z,199.40
2024-04-23T08:23:12.461Z,199.49
2024-04-23T08:24:12.473Z,198.99
2024-04-23T08:25:12.461Z,199.72
2024-04-23T08:26:12.571Z,199.52
2024-04-23T08:27:12.423Z,198.95
2024-04-23T08:28:12.434Z,198.82
2024-04-23T08:29:12.446Z,198.27
2024-04-23T08:30:12.437Z,198.51
2024-04-23T08:31:12.547Z,196.91
2024-04-23T08:32:12.446Z,197.09
2024-04-23T08:33:12.482Z,195.82
2024-04-23T08:34:12.449Z,195.31
2024-04-23T08:35:12.454Z,194.01
2024-04-23T08:36:12.513Z,193.08
2024-04-23T08:37:12.529Z,193.18
2024-04-23T08:38:12.483Z,192.38
2024-04-23T08:39:12.495Z,192.19
2024-04-23T08:40:12.512Z,191.00
2024-04-23T08:41:12.498Z,190.43
2024-04-23T08:42:12.509Z,190.84
2024-04-23T08:43:12.447Z,190.27
2024-04-23T08:44:12.507Z,188.88
2024-04-23T08:45:12.514Z,187.46
2024-04-23T08:46:12.598Z,187.77
2024-04-23T08:47:12.663Z,187.55
2024-04-23T08:48:12.593Z,188.44
2024-04-23T08:49:12.464Z,188.75
2024-04-23T08:50:12.504Z,188.15
2024-04-23T08:51:12.584Z,190.35
2024-04-23T08:52:12.515Z,191.53
2024-04-23T08:53:12.535Z,192.90
2024-04-23T08:54:12.478Z,193.87
2024-04-23T08:55:12.537Z,195.32
2024-04-23T08:56:12.622Z,196.90
2024-04-23T08:57:12.491Z,195.84
2024-04-23T08:58:12.494Z,198.34
2024-04-23T08:59:12.577Z,200.00
2024-04-23T09:00:12.467Z,199.18
2024-04-23T09:01:12.589Z,199.03
2024-04-23T09:02:12.603Z,198.81
2024-04-23T09:03:12.579Z,200.00
2024-04-23T09:04:12.526Z,200.00
2024-04-23T09:05:12.525Z,199.37
2024-04-23T09:06:12.595Z,198.79
2024-04-23T09:07:24.426Z,199.96
2024-04-23T09:08:13.601Z,200.05
2024-04-23T09:09:12.509Z,200.30
2024-04-23T09:10:12.542Z,201.77
2024-04-23T09:11:12.645Z,204.18
2024-04-23T09:12:12.543Z,207.60
2024-04-23T09:13:12.541Z,200.00
2024-04-23T09:14:12.654Z,198.81
2024-04-23T09:15:12.549Z,199.79
2024-04-23T09:16:12.515Z,199.99
2024-04-23T09:17:12.559Z,199.27
2024-04-23T09:18:12.566Z,199.05
2024-04-23T09:19:12.530Z,199.66
2024-04-23T09:20:12.531Z,199.47
2024-04-23T09:21:12.551Z,199.30
2024-04-23T09:22:12.516Z,198.61
2024-04-23T09:23:12.648Z,199.98
2024-04-23T09:24:12.516Z,199.37
2024-04-23T09:25:12.570Z,199.46
2024-04-23T09:26:12.624Z,200.00
2024-04-23T09:27:12.555Z,199.70
2024-04-23T09:28:12.529Z,200.01
2024-04-23T09:29:12.572Z,199.71
2024-04-23T09:30:12.535Z,199.64
2024-04-23T09:31:12.683Z,200.00
2024-04-23T09:32:12.720Z,197.76
2024-04-23T09:33:12.615Z,196.43
2024-04-23T09:34:13.199Z,194.31
